sensor_id;sensor_type;location;lat;lon;timestamp;P1;durP1;ratioP1;P2;durP2;ratioP2
19024;SDS011;9645;51.448;6.260;2023-04-03T00:01:42;19.30;;;8.40;;
19024;SDS011;9645;51.448;6.260;2023-04-03T00:04:09;18.70;;;7.90;;
19024;SDS011;9645;51.448;6.260;2023-04-03T00:06:36;20.55;;;8.02;;
19024;SDS011;9645;51.448;6.260;2023-04-03T00:09:03;21.25;;;8.18;;
19024;SDS011;9645;51.448;6.260;2023-04-03T00:11:30;15.15;;;7.25;;
19024;SDS011;9645;51.448;6.260;2023-04-03T00:13:57;18.23;;;8.25;;
19024;SDS011;9645;51.448;6.260;2023-04-03T00:16:25;23.10;;;9.77;;
19024;SDS011;9645;51.448;6.260;2023-04-03T00:18:52;16.35;;;8.48;;
19024;SDS011;9645;51.448;6.260;2023-04-03T00:21:19;20.58;;;7.82;;
19024;SDS011;9645;51.448;6.260;2023-04-03T00:23:46;26.10;;;8.93;;
19024;SDS011;9645;51.448;6.260;2023-04-03T00:26:13;17.52;;;8.68;;
19024;SDS011;9645;51.448;6.260;2023-04-03T00:28:40;20.40;;;8.10;;
19024;SDS011;9645;51.448;6.260;2023-04-03T00:31:07;27.20;;;8.90;;
19024;SDS011;9645;51.448;6.260;2023-04-03T00:33:35;23.05;;;8.32;;
19024;SDS011;9645;51.448;6.260;2023-04-03T00:36:06;23.10;;;9.00;;
19024;SDS011;9645;51.448;6.260;2023-04-03T00:38:33;22.10;;;8.98;;
19024;SDS011;9645;51.448;6.260;2023-04-03T00:41:01;23.27;;;8.50;;
19024;SDS011;9645;51.448;6.260;2023-04-03T00:43:28;16.13;;;7.50;;
19024;SDS011;9645;51.448;6.260;2023-04-03T00:45:55;24.67;;;8.27;;
19024;SDS011;9645;51.448;6.260;2023-04-03T00:48:24;18.70;;;8.00;;
19024;SDS011;9645;51.448;6.260;2023-04-03T00:50:55;20.40;;;8.02;;
19024;SDS011;9645;51.448;6.260;2023-04-03T00:53:23;18.00;;;7.03;;
19024;SDS011;9645;51.448;6.260;2023-04-03T00:55:53;12.77;;;6.38;;
19024;SDS011;9645;51.448;6.260;2023-04-03T00:58:22;15.30;;;7.15;;
19024;SDS011;9645;51.448;6.260;2023-04-03T01:00:55;18.08;;;7.47;;
19024;SDS011;9645;51.448;6.260;2023-04-03T01:03:25;15.45;;;6.90;;
19024;SDS011;9645;51.448;6.260;2023-04-03T01:05:51;17.85;;;8.15;;
19024;SDS011;9645;51.448;6.260;2023-04-03T01:08:20;23.58;;;7.90;;
19024;SDS011;9645;51.448;6.260;2023-04-03T01:10:47;12.88;;;6.32;;
19024;SDS011;9645;51.448;6.260;2023-04-03T01:13:19;28.00;;;7.90;;
19024;SDS011;9645;51.448;6.260;2023-04-03T01:15:48;13.40;;;6.88;;
19024;SDS011;9645;51.448;6.260;2023-04-03T01:18:15;20.35;;;9.35;;
19024;SDS011;9645;51.448;6.260;2023-04-03T01:24:11;18.17;;;8.05;;
19024;SDS011;9645;51.448;6.260;2023-04-03T01:26:49;22.92;;;8.68;;
19024;SDS011;9645;51.448;6.260;2023-04-03T01:29:16;17.08;;;7.88;;
19024;SDS011;9645;51.448;6.260;2023-04-03T01:31:50;15.65;;;8.02;;
19024;SDS011;9645;51.448;6.260;2023-04-03T01:34:18;11.38;;;7.10;;
19024;SDS011;9645;51.448;6.260;2023-04-03T01:36:46;14.32;;;7.68;;
19024;SDS011;9645;51.448;6.260;2023-04-03T01:39:13;14.68;;;7.18;;
19024;SDS011;9645;51.448;6.260;2023-04-03T01:41:40;12.88;;;7.38;;
19024;SDS011;9645;51.448;6.260;2023-04-03T01:44:07;16.30;;;8.00;;
19024;SDS011;9645;51.448;6.260;2023-04-03T01:46:34;15.40;;;8.25;;
19024;SDS011;9645;51.448;6.260;2023-04-03T01:49:04;15.48;;;8.23;;
19024;SDS011;9645;51.448;6.260;2023-04-03T01:51:31;17.95;;;8.73;;
19024;SDS011;9645;51.448;6.260;2023-04-03T01:53:59;13.10;;;7.55;;
19024;SDS011;9645;51.448;6.260;2023-04-03T01:56:26;18.30;;;8.20;;
19024;SDS011;9645;51.448;6.260;2023-04-03T01:58:53;14.00;;;7.00;;
19024;SDS011;9645;51.448;6.260;2023-04-03T02:01:20;20.27;;;7.70;;
19024;SDS011;9645;51.448;6.260;2023-04-03T02:03:47;16.92;;;7.18;;
19024;SDS011;9645;51.448;6.260;2023-04-03T02:06:15;16.23;;;7.70;;
19024;SDS011;9645;51.448;6.260;2023-04-03T02:08:42;12.95;;;6.82;;
19024;SDS011;9645;51.448;6.260;2023-04-03T02:11:09;21.73;;;6.35;;
19024;SDS011;9645;51.448;6.260;2023-04-03T02:13:36;17.45;;;6.65;;
19024;SDS011;9645;51.448;6.260;2023-04-03T02:16:07;20.63;;;6.03;;
19024;SDS011;9645;51.448;6.260;2023-04-03T02:18:35;13.32;;;7.05;;
19024;SDS011;9645;51.448;6.260;2023-04-03T02:21:02;11.93;;;6.40;;
19024;SDS011;9645;51.448;6.260;2023-04-03T02:23:31;11.15;;;4.78;;
19024;SDS011;9645;51.448;6.260;2023-04-03T02:26:02;10.07;;;4.95;;
19024;SDS011;9645;51.448;6.260;2023-04-03T02:28:34;7.30;;;3.72;;
19024;SDS011;9645;51.448;6.260;2023-04-03T02:31:01;10.63;;;4.40;;
19024;SDS011;9645;51.448;6.260;2023-04-03T02:33:28;9.38;;;4.70;;
19024;SDS011;9645;51.448;6.260;2023-04-03T02:35:56;9.20;;;4.30;;
19024;SDS011;9645;51.448;6.260;2023-04-03T02:38:23;13.52;;;5.28;;
19024;SDS011;9645;51.448;6.260;2023-04-03T02:40:53;13.60;;;3.97;;
19024;SDS011;9645;51.448;6.260;2023-04-03T02:43:25;7.53;;;3.83;;
19024;SDS011;9645;51.448;6.260;2023-04-03T02:45:52;9.40;;;3.95;;
19024;SDS011;9645;51.448;6.260;2023-04-03T02:48:19;10.05;;;3.92;;
19024;SDS011;9645;51.448;6.260;2023-04-03T02:50:46;9.32;;;4.57;;
19024;SDS011;9645;51.448;6.260;2023-04-03T02:53:13;7.93;;;3.65;;
19024;SDS011;9645;51.448;6.260;2023-04-03T02:55:40;7.45;;;3.83;;
19024;SDS011;9645;51.448;6.260;2023-04-03T02:58:08;7.68;;;3.70;;
19024;SDS011;9645;51.448;6.260;2023-04-03T03:00:35;11.95;;;3.55;;
19024;SDS011;9645;51.448;6.260;2023-04-03T03:03:04;5.90;;;3.30;;
19024;SDS011;9645;51.448;6.260;2023-04-03T03:05:32;6.30;;;3.42;;
19024;SDS011;9645;51.448;6.260;2023-04-03T03:07:59;12.57;;;3.50;;
19024;SDS011;9645;51.448;6.260;2023-04-03T03:10:26;7.00;;;3.33;;
19024;SDS011;9645;51.448;6.260;2023-04-03T03:12:53;6.32;;;3.40;;
19024;SDS011;9645;51.448;6.260;2023-04-03T03:15:21;7.90;;;3.00;;
19024;SDS011;9645;51.448;6.260;2023-04-03T03:17:48;6.68;;;3.22;;
19024;SDS011;9645;51.448;6.260;2023-04-03T03:20:15;7.95;;;3.55;;
19024;SDS011;9645;51.448;6.260;2023-04-03T03:22:42;13.02;;;3.67;;
19024;SDS011;9645;51.448;6.260;2023-04-03T03:25:09;5.25;;;2.80;;
19024;SDS011;9645;51.448;6.260;2023-04-03T03:27:36;6.47;;;2.90;;
19024;SDS011;9645;51.448;6.260;2023-04-03T03:30:03;8.80;;;3.05;;
19024;SDS011;9645;51.448;6.260;2023-04-03T03:32:33;7.35;;;3.05;;
19024;SDS011;9645;51.448;6.260;2023-04-03T03:35:00;6.30;;;2.97;;
19024;SDS011;9645;51.448;6.260;2023-04-03T03:37:27;9.15;;;3.50;;
19024;SDS011;9645;51.448;6.260;2023-04-03T03:39:54;3.33;;;2.17;;
19024;SDS011;9645;51.448;6.260;2023-04-03T03:42:21;5.18;;;2.45;;
19024;SDS011;9645;51.448;6.260;2023-04-03T03:44:48;10.18;;;3.08;;
19024;SDS011;9645;51.448;6.260;2023-04-03T03:47:16;3.95;;;2.30;;
19024;SDS011;9645;51.448;6.260;2023-04-03T03:49:45;5.28;;;2.10;;
19024;SDS011;9645;51.448;6.260;2023-04-03T03:52:12;6.47;;;3.10;;
19024;SDS011;9645;51.448;6.260;2023-04-03T03:54:39;5.05;;;2.20;;
19024;SDS011;9645;51.448;6.260;2023-04-03T03:57:06;9.75;;;3.05;;
19024;SDS011;9645;51.448;6.260;2023-04-03T03:59:32;6.70;;;2.35;;
19024;SDS011;9645;51.448;6.260;2023-04-03T04:01:59;4.50;;;1.90;;
19024;SDS011;9645;51.448;6.260;2023-04-03T04:04:27;5.43;;;2.20;;
19024;SDS011;9645;51.448;6.260;2023-04-03T04:06:55;5.80;;;2.70;;
19024;SDS011;9645;51.448;6.260;2023-04-03T04:09:22;7.50;;;3.20;;
19024;SDS011;9645;51.448;6.260;2023-04-03T04:11:49;9.75;;;3.65;;
19024;SDS011;9645;51.448;6.260;2023-04-03T04:14:16;7.93;;;2.30;;
19024;SDS011;9645;51.448;6.260;2023-04-03T04:16:45;5.63;;;2.75;;
19024;SDS011;9645;51.448;6.260;2023-04-03T04:19:12;6.55;;;2.83;;
19024;SDS011;9645;51.448;6.260;2023-04-03T04:21:39;3.80;;;2.00;;
19024;SDS011;9645;51.448;6.260;2023-04-03T04:24:09;6.63;;;2.90;;
19024;SDS011;9645;51.448;6.260;2023-04-03T04:26:36;3.85;;;2.20;;
19024;SDS011;9645;51.448;6.260;2023-04-03T04:29:03;7.47;;;2.53;;
19024;SDS011;9645;51.448;6.260;2023-04-03T04:31:30;8.80;;;2.78;;
19024;SDS011;9645;51.448;6.260;2023-04-03T04:33:57;10.70;;;2.92;;
19024;SDS011;9645;51.448;6.260;2023-04-03T04:36:25;7.03;;;2.67;;
19024;SDS011;9645;51.448;6.260;2023-04-03T04:38:52;4.88;;;2.65;;
19024;SDS011;9645;51.448;6.260;2023-04-03T04:41:20;6.53;;;2.80;;
19024;SDS011;9645;51.448;6.260;2023-04-03T04:43:48;6.80;;;2.85;;
19024;SDS011;9645;51.448;6.260;2023-04-03T04:46:15;9.18;;;2.72;;
19024;SDS011;9645;51.448;6.260;2023-04-03T04:48:43;8.65;;;3.58;;
19024;SDS011;9645;51.448;6.260;2023-04-03T04:51:10;8.20;;;4.07;;
19024;SDS011;9645;51.448;6.260;2023-04-03T04:53:37;14.00;;;4.88;;
19024;SDS011;9645;51.448;6.260;2023-04-03T04:56:04;8.07;;;4.00;;
19024;SDS011;9645;51.448;6.260;2023-04-03T04:58:33;4.82;;;3.58;;
19024;SDS011;9645;51.448;6.260;2023-04-03T05:01:00;7.05;;;3.20;;
19024;SDS011;9645;51.448;6.260;2023-04-03T05:03:28;6.15;;;2.80;;
19024;SDS011;9645;51.448;6.260;2023-04-03T05:05:55;6.65;;;2.80;;
19024;SDS011;9645;51.448;6.260;2023-04-03T05:08:22;7.10;;;2.75;;
19024;SDS011;9645;51.448;6.260;2023-04-03T05:10:49;7.82;;;3.05;;
19024;SDS011;9645;51.448;6.260;2023-04-03T05:13:16;4.75;;;2.50;;
19024;SDS011;9645;51.448;6.260;2023-04-03T05:15:45;8.43;;;2.40;;
19024;SDS011;9645;51.448;6.260;2023-04-03T05:18:12;3.83;;;2.40;;
19024;SDS011;9645;51.448;6.260;2023-04-03T05:20:40;5.95;;;2.30;;
19024;SDS011;9645;51.448;6.260;2023-04-03T05:23:08;11.18;;;2.60;;
19024;SDS011;9645;51.448;6.260;2023-04-03T05:25:37;5.60;;;2.20;;
19024;SDS011;9645;51.448;6.260;2023-04-03T05:28:04;2.90;;;2.10;;
19024;SDS011;9645;51.448;6.260;2023-04-03T05:30:31;8.95;;;2.70;;
19024;SDS011;9645;51.448;6.260;2023-04-03T05:32:59;9.40;;;2.30;;
19024;SDS011;9645;51.448;6.260;2023-04-03T05:35:26;7.88;;;2.67;;
19024;SDS011;9645;51.448;6.260;2023-04-03T05:37:53;6.13;;;2.70;;
19024;SDS011;9645;51.448;6.260;2023-04-03T05:40:21;12.68;;;2.35;;
19024;SDS011;9645;51.448;6.260;2023-04-03T05:42:48;6.45;;;2.75;;
19024;SDS011;9645;51.448;6.260;2023-04-03T05:45:15;6.75;;;2.70;;
19024;SDS011;9645;51.448;6.260;2023-04-03T05:47:42;4.88;;;2.95;;
19024;SDS011;9645;51.448;6.260;2023-04-03T05:50:10;9.00;;;3.25;;
19024;SDS011;9645;51.448;6.260;2023-04-03T05:52:38;6.10;;;3.05;;
19024;SDS011;9645;51.448;6.260;2023-04-03T05:55:08;9.23;;;3.15;;
19024;SDS011;9645;51.448;6.260;2023-04-03T05:57:35;5.07;;;2.47;;
19024;SDS011;9645;51.448;6.260;2023-04-03T06:00:03;5.78;;;2.30;;
19024;SDS011;9645;51.448;6.260;2023-04-03T06:02:31;13.48;;;3.17;;
19024;SDS011;9645;51.448;6.260;2023-04-03T06:04:58;5.35;;;2.22;;
19024;SDS011;9645;51.448;6.260;2023-04-03T06:07:26;5.47;;;2.35;;
19024;SDS011;9645;51.448;6.260;2023-04-03T06:09:54;6.88;;;2.85;;
19024;SDS011;9645;51.448;6.260;2023-04-03T06:12:22;8.55;;;2.22;;
19024;SDS011;9645;51.448;6.260;2023-04-03T06:14:49;6.25;;;2.25;;
19024;SDS011;9645;51.448;6.260;2023-04-03T06:17:17;5.63;;;2.40;;
19024;SDS011;9645;51.448;6.260;2023-04-03T06:19:45;10.07;;;2.10;;
19024;SDS011;9645;51.448;6.260;2023-04-03T06:22:12;4.10;;;1.92;;
19024;SDS011;9645;51.448;6.260;2023-04-03T06:24:41;6.78;;;2.25;;
19024;SDS011;9645;51.448;6.260;2023-04-03T06:27:09;3.92;;;2.08;;
19024;SDS011;9645;51.448;6.260;2023-04-03T06:29:37;4.43;;;2.05;;
19024;SDS011;9645;51.448;6.260;2023-04-03T06:32:04;7.45;;;2.65;;
19024;SDS011;9645;51.448;6.260;2023-04-03T06:34:31;6.18;;;2.38;;
19024;SDS011;9645;51.448;6.260;2023-04-03T06:36:59;11.10;;;2.20;;
19024;SDS011;9645;51.448;6.260;2023-04-03T06:39:26;3.63;;;1.92;;
19024;SDS011;9645;51.448;6.260;2023-04-03T06:41:54;15.82;;;2.25;;
19024;SDS011;9645;51.448;6.260;2023-04-03T06:44:21;4.55;;;2.00;;
19024;SDS011;9645;51.448;6.260;2023-04-03T06:46:48;4.20;;;1.98;;
19024;SDS011;9645;51.448;6.260;2023-04-03T06:49:16;7.28;;;2.47;;
19024;SDS011;9645;51.448;6.260;2023-04-03T06:51:43;7.07;;;2.15;;
19024;SDS011;9645;51.448;6.260;2023-04-03T06:54:10;6.25;;;2.65;;
19024;SDS011;9645;51.448;6.260;2023-04-03T06:56:37;6.10;;;1.90;;
19024;SDS011;9645;51.448;6.260;2023-04-03T06:59:06;7.22;;;2.58;;
19024;SDS011;9645;51.448;6.260;2023-04-03T07:01:33;18.45;;;2.90;;
19024;SDS011;9645;51.448;6.260;2023-04-03T07:04:00;7.22;;;2.75;;
19024;SDS011;9645;51.448;6.260;2023-04-03T07:06:28;8.48;;;2.42;;
19024;SDS011;9645;51.448;6.260;2023-04-03T07:08:56;8.50;;;1.83;;
19024;SDS011;9645;51.448;6.260;2023-04-03T07:11:23;5.47;;;2.05;;
19024;SDS011;9645;51.448;6.260;2023-04-03T07:13:51;4.45;;;2.22;;
19024;SDS011;9645;51.448;6.260;2023-04-03T07:16:19;11.73;;;2.47;;
19024;SDS011;9645;51.448;6.260;2023-04-03T07:18:46;11.93;;;2.20;;
19024;SDS011;9645;51.448;6.260;2023-04-03T07:21:13;6.43;;;2.20;;
19024;SDS011;9645;51.448;6.260;2023-04-03T07:23:40;7.93;;;1.90;;
19024;SDS011;9645;51.448;6.260;2023-04-03T07:26:07;6.43;;;2.27;;
19024;SDS011;9645;51.448;6.260;2023-04-03T07:28:34;6.73;;;1.90;;
19024;SDS011;9645;51.448;6.260;2023-04-03T07:31:02;7.00;;;2.47;;
19024;SDS011;9645;51.448;6.260;2023-04-03T07:33:32;9.33;;;2.60;;
19024;SDS011;9645;51.448;6.260;2023-04-03T07:36:00;6.33;;;2.10;;
19024;SDS011;9645;51.448;6.260;2023-04-03T07:38:27;6.27;;;2.00;;
19024;SDS011;9645;51.448;6.260;2023-04-03T07:40:54;5.03;;;2.23;;
19024;SDS011;9645;51.448;6.260;2023-04-03T07:43:22;6.97;;;2.63;;
19024;SDS011;9645;51.448;6.260;2023-04-03T07:45:49;9.13;;;2.77;;
19024;SDS011;9645;51.448;6.260;2023-04-03T07:48:17;3.70;;;2.10;;
19024;SDS011;9645;51.448;6.260;2023-04-03T07:50:59;6.30;;;2.20;;
19024;SDS011;9645;51.448;6.260;2023-04-03T07:53:27;4.03;;;2.00;;
19024;SDS011;9645;51.448;6.260;2023-04-03T07:55:54;6.00;;;2.13;;
19024;SDS011;9645;51.448;6.260;2023-04-03T07:58:23;2.77;;;1.73;;
19024;SDS011;9645;51.448;6.260;2023-04-03T08:00:51;5.60;;;1.83;;
19024;SDS011;9645;51.448;6.260;2023-04-03T08:03:18;8.40;;;1.90;;
19024;SDS011;9645;51.448;6.260;2023-04-03T08:05:47;4.47;;;1.77;;
19024;SDS011;9645;51.448;6.260;2023-04-03T08:08:16;6.33;;;1.83;;
19024;SDS011;9645;51.448;6.260;2023-04-03T08:10:47;2.90;;;1.80;;
19024;SDS011;9645;51.448;6.260;2023-04-03T08:13:15;4.83;;;1.73;;
19024;SDS011;9645;51.448;6.260;2023-04-03T08:15:42;5.23;;;2.07;;
19024;SDS011;9645;51.448;6.260;2023-04-03T08:18:10;3.10;;;1.90;;
19024;SDS011;9645;51.448;6.260;2023-04-03T08:20:37;2.00;;;1.50;;
19024;SDS011;9645;51.448;6.260;2023-04-03T08:23:05;4.30;;;1.50;;
19024;SDS011;9645;51.448;6.260;2023-04-03T08:25:34;5.70;;;1.80;;
19024;SDS011;9645;51.448;6.260;2023-04-03T08:28:01;2.73;;;1.80;;
19024;SDS011;9645;51.448;6.260;2023-04-03T08:30:28;6.83;;;1.60;;
19024;SDS011;9645;51.448;6.260;2023-04-03T08:32:56;3.50;;;1.80;;
19024;SDS011;9645;51.448;6.260;2023-04-03T08:35:23;3.57;;;1.53;;
19024;SDS011;9645;51.448;6.260;2023-04-03T08:37:49;3.27;;;1.97;;
19024;SDS011;9645;51.448;6.260;2023-04-03T08:40:17;5.10;;;1.63;;
19024;SDS011;9645;51.448;6.260;2023-04-03T08:42:48;4.70;;;1.70;;
19024;SDS011;9645;51.448;6.260;2023-04-03T08:45:25;2.03;;;1.83;;
19024;SDS011;9645;51.448;6.260;2023-04-03T08:48:02;2.00;;;1.57;;
19024;SDS011;9645;51.448;6.260;2023-04-03T08:50:33;4.27;;;1.33;;
19024;SDS011;9645;51.448;6.260;2023-04-03T08:53:06;2.93;;;1.67;;
19024;SDS011;9645;51.448;6.260;2023-04-03T08:55:42;3.97;;;1.87;;
19024;SDS011;9645;51.448;6.260;2023-04-03T08:58:14;9.30;;;2.10;;
19024;SDS011;9645;51.448;6.260;2023-04-03T09:00:44;5.00;;;1.80;;
19024;SDS011;9645;51.448;6.260;2023-04-03T09:03:14;2.73;;;1.70;;
19024;SDS011;9645;51.448;6.260;2023-04-03T09:05:43;2.20;;;1.60;;
19024;SDS011;9645;51.448;6.260;2023-04-03T09:08:17;4.33;;;1.80;;
19024;SDS011;9645;51.448;6.260;2023-04-03T09:10:48;3.07;;;1.80;;
19024;SDS011;9645;51.448;6.260;2023-04-03T09:13:23;2.00;;;1.47;;
19024;SDS011;9645;51.448;6.260;2023-04-03T09:15:56;2.60;;;1.57;;
19024;SDS011;9645;51.448;6.260;2023-04-03T09:18:23;1.80;;;1.17;;
19024;SDS011;9645;51.448;6.260;2023-04-03T09:20:58;3.37;;;1.73;;
19024;SDS011;9645;51.448;6.260;2023-04-03T09:23:33;1.17;;;1.00;;
19024;SDS011;9645;51.448;6.260;2023-04-03T09:26:08;5.07;;;1.40;;
19024;SDS011;9645;51.448;6.260;2023-04-03T09:28:41;1.33;;;1.07;;
19024;SDS011;9645;51.448;6.260;2023-04-03T09:31:14;2.67;;;1.20;;
19024;SDS011;9645;51.448;6.260;2023-04-03T09:33:46;1.70;;;0.90;;
19024;SDS011;9645;51.448;6.260;2023-04-03T09:36:22;2.37;;;1.30;;
19024;SDS011;9645;51.448;6.260;2023-04-03T09:39:04;3.77;;;1.20;;
19024;SDS011;9645;51.448;6.260;2023-04-03T09:41:33;1.20;;;0.90;;
19024;SDS011;9645;51.448;6.260;2023-04-03T09:44:01;0.90;;;0.90;;
19024;SDS011;9645;51.448;6.260;2023-04-03T09:46:29;3.70;;;0.87;;
19024;SDS011;9645;51.448;6.260;2023-04-03T09:48:58;2.97;;;1.27;;
19024;SDS011;9645;51.448;6.260;2023-04-03T09:51:26;1.90;;;1.03;;
19024;SDS011;9645;51.448;6.260;2023-04-03T09:53:53;2.90;;;0.80;;
19024;SDS011;9645;51.448;6.260;2023-04-03T09:56:22;1.80;;;0.87;;
19024;SDS011;9645;51.448;6.260;2023-04-03T09:58:52;6.43;;;0.80;;
19024;SDS011;9645;51.448;6.260;2023-04-03T10:01:39;1.60;;;1.20;;
19024;SDS011;9645;51.448;6.260;2023-04-03T10:04:09;3.70;;;0.90;;
19024;SDS011;9645;51.448;6.260;2023-04-03T10:06:38;1.50;;;0.87;;
19024;SDS011;9645;51.448;6.260;2023-04-03T10:09:15;3.43;;;1.20;;
19024;SDS011;9645;51.448;6.260;2023-04-03T10:11:59;2.83;;;1.10;;
19024;SDS011;9645;51.448;6.260;2023-04-03T10:14:31;2.40;;;1.07;;
19024;SDS011;9645;51.448;6.260;2023-04-03T10:17:02;1.73;;;0.90;;
19024;SDS011;9645;51.448;6.260;2023-04-03T10:19:39;1.50;;;0.90;;
19024;SDS011;9645;51.448;6.260;2023-04-03T10:22:15;4.23;;;1.20;;
19024;SDS011;9645;51.448;6.260;2023-04-03T10:24:51;1.77;;;1.20;;
19024;SDS011;9645;51.448;6.260;2023-04-03T10:27:27;1.00;;;0.83;;
19024;SDS011;9645;51.448;6.260;2023-04-03T10:30:07;1.20;;;1.10;;
19024;SDS011;9645;51.448;6.260;2023-04-03T10:32:50;7.53;;;1.30;;
19024;SDS011;9645;51.448;6.260;2023-04-03T10:35:27;2.20;;;1.23;;
19024;SDS011;9645;51.448;6.260;2023-04-03T10:38:04;1.80;;;1.00;;
19024;SDS011;9645;51.448;6.260;2023-04-03T10:40:38;1.10;;;1.00;;
19024;SDS011;9645;51.448;6.260;2023-04-03T10:43:13;2.10;;;1.23;;
19024;SDS011;9645;51.448;6.260;2023-04-03T10:45:52;1.10;;;0.93;;
19024;SDS011;9645;51.448;6.260;2023-04-03T10:48:34;3.60;;;1.40;;
19024;SDS011;9645;51.448;6.260;2023-04-03T10:51:15;8.03;;;1.57;;
19024;SDS011;9645;51.448;6.260;2023-04-03T10:53:52;1.63;;;1.50;;
19024;SDS011;9645;51.448;6.260;2023-04-03T10:56:26;1.57;;;1.20;;
19024;SDS011;9645;51.448;6.260;2023-04-03T10:58:59;3.17;;;1.17;;
19024;SDS011;9645;51.448;6.260;2023-04-03T11:01:36;1.63;;;1.03;;
19024;SDS011;9645;51.448;6.260;2023-04-03T11:04:06;1.47;;;1.30;;
19024;SDS011;9645;51.448;6.260;2023-04-03T11:06:36;2.30;;;1.10;;
19024;SDS011;9645;51.448;6.260;2023-04-03T11:09:09;2.40;;;0.93;;
19024;SDS011;9645;51.448;6.260;2023-04-03T11:11:45;1.03;;;0.87;;
19024;SDS011;9645;51.448;6.260;2023-04-03T11:14:25;2.97;;;1.30;;
19024;SDS011;9645;51.448;6.260;2023-04-03T11:16:59;2.70;;;1.00;;
19024;SDS011;9645;51.448;6.260;2023-04-03T11:19:34;1.10;;;1.00;;
19024;SDS011;9645;51.448;6.260;2023-04-03T11:22:08;3.10;;;1.10;;
19024;SDS011;9645;51.448;6.260;2023-04-03T11:24:42;4.50;;;1.30;;
19024;SDS011;9645;51.448;6.260;2023-04-03T11:27:15;5.43;;;0.90;;
19024;SDS011;9645;51.448;6.260;2023-04-03T11:29:47;4.57;;;1.37;;
19024;SDS011;9645;51.448;6.260;2023-04-03T11:35:18;3.43;;;1.30;;
19024;SDS011;9645;51.448;6.260;2023-04-03T11:37:47;2.70;;;1.43;;
19024;SDS011;9645;51.448;6.260;2023-04-03T11:40:21;2.90;;;1.30;;
19024;SDS011;9645;51.448;6.260;2023-04-03T11:42:52;4.90;;;1.43;;
19024;SDS011;9645;51.448;6.260;2023-04-03T11:45:25;4.03;;;1.73;;
19024;SDS011;9645;51.448;6.260;2023-04-03T11:48:01;13.97;;;1.57;;
19024;SDS011;9645;51.448;6.260;2023-04-03T11:53:34;1.83;;;0.90;;
19024;SDS011;9645;51.448;6.260;2023-04-03T11:56:03;2.40;;;1.20;;
19024;SDS011;9645;51.448;6.260;2023-04-03T11:58:50;2.50;;;1.27;;
19024;SDS011;9645;51.448;6.260;2023-04-03T12:01:50;2.67;;;1.53;;
19024;SDS011;9645;51.448;6.260;2023-04-03T12:04:18;4.10;;;1.20;;
19024;SDS011;9645;51.448;6.260;2023-04-03T12:12:29;3.33;;;1.60;;
19024;SDS011;9645;51.448;6.260;2023-04-03T12:15:16;4.53;;;1.67;;
19024;SDS011;9645;51.448;6.260;2023-04-03T12:17:59;5.20;;;1.40;;
19024;SDS011;9645;51.448;6.260;2023-04-03T12:21:16;1.90;;;1.13;;
19024;SDS011;9645;51.448;6.260;2023-04-03T12:24:04;3.67;;;1.37;;
19024;SDS011;9645;51.448;6.260;2023-04-03T12:26:50;4.40;;;1.37;;
19024;SDS011;9645;51.448;6.260;2023-04-03T12:29:29;6.83;;;1.87;;
19024;SDS011;9645;51.448;6.260;2023-04-03T12:32:09;3.97;;;1.50;;
19024;SDS011;9645;51.448;6.260;2023-04-03T12:34:45;1.60;;;1.10;;
19024;SDS011;9645;51.448;6.260;2023-04-03T12:37:27;2.20;;;1.20;;
19024;SDS011;9645;51.448;6.260;2023-04-03T12:42:58;12.53;;;1.50;;
19024;SDS011;9645;51.448;6.260;2023-04-03T12:45:43;2.13;;;1.40;;
19024;SDS011;9645;51.448;6.260;2023-04-03T12:48:15;4.67;;;1.40;;
19024;SDS011;9645;51.448;6.260;2023-04-03T12:50:45;11.63;;;1.47;;
19024;SDS011;9645;51.448;6.260;2023-04-03T12:53:13;9.23;;;1.53;;
19024;SDS011;9645;51.448;6.260;2023-04-03T12:55:44;5.07;;;1.70;;
19024;SDS011;9645;51.448;6.260;2023-04-03T12:58:14;3.53;;;1.43;;
19024;SDS011;9645;51.448;6.260;2023-04-03T13:00:46;2.70;;;1.50;;
19024;SDS011;9645;51.448;6.260;2023-04-03T13:03:27;5.30;;;1.80;;
19024;SDS011;9645;51.448;6.260;2023-04-03T13:05:55;3.57;;;1.50;;
19024;SDS011;9645;51.448;6.260;2023-04-03T13:08:27;2.30;;;1.57;;
19024;SDS011;9645;51.448;6.260;2023-04-03T13:10:56;1.73;;;1.38;;
19024;SDS011;9645;51.448;6.260;2023-04-03T13:13:27;3.03;;;1.23;;
19024;SDS011;9645;51.448;6.260;2023-04-03T13:15:54;2.00;;;1.60;;
19024;SDS011;9645;51.448;6.260;2023-04-03T13:18:22;2.10;;;1.40;;
19024;SDS011;9645;51.448;6.260;2023-04-03T13:20:52;1.90;;;1.50;;
19024;SDS011;9645;51.448;6.260;2023-04-03T13:23:22;2.47;;;1.33;;
19024;SDS011;9645;51.448;6.260;2023-04-03T13:25:50;1.53;;;1.33;;
19024;SDS011;9645;51.448;6.260;2023-04-03T13:28:20;3.77;;;1.57;;
19024;SDS011;9645;51.448;6.260;2023-04-03T13:31:02;4.17;;;1.27;;
19024;SDS011;9645;51.448;6.260;2023-04-03T13:33:35;6.63;;;1.70;;
19024;SDS011;9645;51.448;6.260;2023-04-03T13:36:05;4.23;;;1.57;;
19024;SDS011;9645;51.448;6.260;2023-04-03T13:38:41;2.53;;;1.43;;
19024;SDS011;9645;51.448;6.260;2023-04-03T13:41:21;2.33;;;1.63;;
19024;SDS011;9645;51.448;6.260;2023-04-03T13:43:51;1.40;;;1.23;;
19024;SDS011;9645;51.448;6.260;2023-04-03T13:46:24;2.53;;;1.60;;
19024;SDS011;9645;51.448;6.260;2023-04-03T13:48:55;6.68;;;1.50;;
19024;SDS011;9645;51.448;6.260;2023-04-03T13:51:24;4.77;;;1.40;;
19024;SDS011;9645;51.448;6.260;2023-04-03T13:53:53;1.70;;;1.40;;
19024;SDS011;9645;51.448;6.260;2023-04-03T13:56:24;2.50;;;1.60;;
19024;SDS011;9645;51.448;6.260;2023-04-03T13:58:57;2.50;;;1.67;;
19024;SDS011;9645;51.448;6.260;2023-04-03T14:01:32;3.27;;;1.43;;
19024;SDS011;9645;51.448;6.260;2023-04-03T14:04:10;3.43;;;1.47;;
19024;SDS011;9645;51.448;6.260;2023-04-03T14:06:41;2.67;;;1.60;;
19024;SDS011;9645;51.448;6.260;2023-04-03T14:09:08;1.93;;;1.30;;
19024;SDS011;9645;51.448;6.260;2023-04-03T14:11:35;4.90;;;2.20;;
19024;SDS011;9645;51.448;6.260;2023-04-03T14:14:02;4.88;;;1.65;;
19024;SDS011;9645;51.448;6.260;2023-04-03T14:16:37;2.33;;;1.60;;
19024;SDS011;9645;51.448;6.260;2023-04-03T14:19:06;4.40;;;1.50;;
19024;SDS011;9645;51.448;6.260;2023-04-03T14:21:42;3.87;;;1.57;;
19024;SDS011;9645;51.448;6.260;2023-04-03T14:24:09;6.50;;;1.40;;
19024;SDS011;9645;51.448;6.260;2023-04-03T14:26:36;4.00;;;1.60;;
19024;SDS011;9645;51.448;6.260;2023-04-03T14:29:03;3.08;;;1.45;;
19024;SDS011;9645;51.448;6.260;2023-04-03T14:31:31;3.50;;;1.37;;
19024;SDS011;9645;51.448;6.260;2023-04-03T14:33:58;3.30;;;1.37;;
19024;SDS011;9645;51.448;6.260;2023-04-03T14:36:26;5.32;;;1.45;;
19024;SDS011;9645;51.448;6.260;2023-04-03T14:38:59;2.55;;;1.40;;
19024;SDS011;9645;51.448;6.260;2023-04-03T14:41:27;2.83;;;1.30;;
19024;SDS011;9645;51.448;6.260;2023-04-03T14:43:54;3.83;;;1.33;;
19024;SDS011;9645;51.448;6.260;2023-04-03T14:46:24;5.22;;;1.42;;
19024;SDS011;9645;51.448;6.260;2023-04-03T14:48:54;5.72;;;1.20;;
19024;SDS011;9645;51.448;6.260;2023-04-03T14:51:22;2.53;;;1.20;;
19024;SDS011;9645;51.448;6.260;2023-04-03T14:53:49;2.95;;;1.20;;
19024;SDS011;9645;51.448;6.260;2023-04-03T14:56:19;11.40;;;1.45;;
19024;SDS011;9645;51.448;6.260;2023-04-03T14:58:49;5.38;;;1.80;;
19024;SDS011;9645;51.448;6.260;2023-04-03T15:01:19;2.97;;;1.50;;
19024;SDS011;9645;51.448;6.260;2023-04-03T15:03:46;5.47;;;1.63;;
19024;SDS011;9645;51.448;6.260;2023-04-03T15:06:14;5.78;;;1.63;;
19024;SDS011;9645;51.448;6.260;2023-04-03T15:08:42;3.83;;;1.60;;
19024;SDS011;9645;51.448;6.260;2023-04-03T15:11:10;3.17;;;1.35;;
19024;SDS011;9645;51.448;6.260;2023-04-03T15:13:39;3.05;;;1.40;;
19024;SDS011;9645;51.448;6.260;2023-04-03T15:16:10;3.97;;;2.10;;
19024;SDS011;9645;51.448;6.260;2023-04-03T15:18:41;1.10;;;0.90;;
19024;SDS011;9645;51.448;6.260;2023-04-03T15:21:09;3.50;;;1.50;;
19024;SDS011;9645;51.448;6.260;2023-04-03T15:23:36;2.67;;;1.27;;
19024;SDS011;9645;51.448;6.260;2023-04-03T15:26:03;4.40;;;1.60;;
19024;SDS011;9645;51.448;6.260;2023-04-03T15:28:32;4.90;;;1.38;;
19024;SDS011;9645;51.448;6.260;2023-04-03T15:31:03;4.15;;;1.40;;
19024;SDS011;9645;51.448;6.260;2023-04-03T15:33:30;2.70;;;1.33;;